Riverdance — C6CG3 — position and weather

sailwx.info

Track history (hours):
 
Tides and Currents Weather Stations Pressure Air Temp Water Temp Dewpoint Dewpoint Depression Visibility Wind Speed Wind Dir Waves Ship Positions

Riverdance

Operator: Crescent Marine Services Ltd

Last reported at 2017-Nov-24 01:30 UTC. Time now 2017-Nov-24 01:46 UTC.
Position N 57°09' W 002°05'.

Length 72 m; draft 5.7 m.

Type: Other ship. MMSI: 311000463.

Date/timePositionNaut miles runAvg speedWind from/ knotsBaromVisibWave heightAir tempDewpointWater temp
2017-Nov-24 01:30N 57°09' W 002°05'0 0.0
2017-Nov-24 01:00N 57°09' W 002°05'0 0.0
2017-Nov-24 00:30N 57°09' W 002°05'0 0.0
2017-Nov-24 00:00N 57°09' W 002°05'0 0.0
2017-Nov-23 23:30N 57°09' W 002°05'0 0.0
2017-Nov-23 23:00N 57°09' W 002°05'0 0.0
2017-Nov-23 22:30N 57°09' W 002°05'0 0.0
2017-Nov-23 22:00N 57°09' W 002°05'0 0.0
2017-Nov-23 21:30N 57°09' W 002°05'0 0.0
2017-Nov-23 21:00N 57°09' W 002°05'0 0.0
2017-Nov-23 20:30N 57°09' W 002°05'0 0.0
2017-Nov-23 20:00N 57°09' W 002°05'0 0.0
2017-Nov-23 19:30N 57°09' W 002°05'0 0.0
2017-Nov-23 19:00N 57°09' W 002°05'0 0.0
2017-Nov-23 18:30N 57°09' W 002°05'0 0.0
2017-Nov-23 18:00N 57°09' W 002°05'0 0.0
2017-Nov-23 17:30N 57°09' W 002°05'0 0.0
2017-Nov-23 17:00N 57°09' W 002°05'0 0.0
2017-Nov-23 16:30N 57°09' W 002°05'0 0.0
2017-Nov-23 16:00N 57°09' W 002°05'0 0.0
2017-Nov-23 15:30N 57°09' W 002°05'0 0.0
2017-Nov-23 15:00N 57°09' W 002°05'0 0.0
2017-Nov-23 14:30N 57°09' W 002°05'0 0.0
2017-Nov-23 14:00N 57°09' W 002°05'0 0.0
2017-Nov-23 13:30N 57°09' W 002°05'0 0.0
2017-Nov-23 13:00N 57°09' W 002°05'0 0.0
2017-Nov-23 12:30N 57°09' W 002°05'0 0.0
2017-Nov-23 12:00N 57°09' W 002°05'0 0.0
2017-Nov-23 11:30N 57°09' W 002°05'0 0.0
2017-Nov-23 11:00N 57°09' W 002°05'0 0.0
2017-Nov-23 10:30N 57°09' W 002°05'0 0.0
2017-Nov-23 10:00N 57°09' W 002°05'0 0.0
2017-Nov-23 09:30N 57°09' W 002°05'0 0.0
2017-Nov-23 09:00N 57°09' W 002°05'0 0.0
2017-Nov-23 08:30N 57°09' W 002°05'0 0.0
2017-Nov-23 08:00N 57°09' W 002°05'0 0.0
2017-Nov-23 07:30N 57°09' W 002°05'0 0.0
2017-Nov-23 07:00N 57°09' W 002°05'0 0.0
2017-Nov-23 06:30N 57°09' W 002°05'0 0.0
2017-Nov-23 06:00N 57°09' W 002°05'0 0.0
2017-Nov-23 05:30N 57°09' W 002°05'0 0.0
2017-Nov-23 05:00N 57°09' W 002°05'0 0.0
2017-Nov-23 04:30N 57°09' W 002°05'0 0.0
2017-Nov-23 04:00N 57°09' W 002°05'0 0.0
2017-Nov-23 03:30N 57°09' W 002°05'0 0.0
2017-Nov-23 03:00N 57°09' W 002°05'0 0.0
2017-Nov-23 02:30N 57°09' W 002°05'0 0.0
2017-Nov-23 02:00N 57°09' W 002°05'0 0.0
2017-Nov-23 01:30N 57°09' W 002°05'0 0.0
2017-Nov-23 01:00N 57°09' W 002°05'0 0.0
2017-Nov-23 00:30N 57°09' W 002°05'0 0.0
2017-Nov-23 00:00N 57°09' W 002°05'0 0.0
2017-Nov-22 23:30N 57°09' W 002°05'0 0.0
2017-Nov-22 23:00N 57°09' W 002°05'0 0.0
2017-Nov-22 22:30N 57°09' W 002°05'0 0.0
2017-Nov-22 22:00N 57°09' W 002°05'0 0.0
2017-Nov-22 21:30N 57°09' W 002°05'0 0.0
2017-Nov-22 21:00N 57°09' W 002°05'0 0.0
2017-Nov-22 20:30N 57°09' W 002°05'0 0.0
2017-Nov-22 20:00N 57°09' W 002°05'0 0.0
2017-Nov-22 19:30N 57°09' W 002°05'  
2017-Nov-19 07:01N 57°53' W 001°40'0 4.3
2017-Nov-19 07:00N 57°52' W 001°40'2 5.0
2017-Nov-19 06:30N 57°50' W 001°40'3 5.5
2017-Nov-19 06:00N 57°47' W 001°40'3 5.5
2017-Nov-19 05:30N 57°44' W 001°40'3 5.6
2017-Nov-19 05:00N 57°42' W 001°40'3 5.2
2017-Nov-19 04:30N 57°39' W 001°39'3 5.6
2017-Nov-19 04:00N 57°36' W 001°39'3 5.6
2017-Nov-19 03:30N 57°34' W 001°38'3 5.2
2017-Nov-19 03:00N 57°31' W 001°38'3 5.2
2017-Nov-19 02:31N 57°28' W 001°38'3 5.5
2017-Nov-19 02:00N 57°26' W 001°38'3 6.7
2017-Nov-19 01:31N 57°23' W 001°41'6 7.1
2017-Nov-19 00:42N 57°18' W 001°48'2 7.6
2017-Nov-19 00:29N 57°17' W 001°49'4 7.9
2017-Nov-19 00:00N 57°14' W 001°53'4 8.2
2017-Nov-18 23:31N 57°10' W 001°58'4 7.4
2017-Nov-18 22:58N 57°09' W 002°05'0 0.0
2017-Nov-18 22:28N 57°09' W 002°05'0 0.0
2017-Nov-18 21:58N 57°09' W 002°05'0 0.0
2017-Nov-18 21:28N 57°09' W 002°05'0 0.0
2017-Nov-18 20:58N 57°09' W 002°05'0 0.0
2017-Nov-18 20:28N 57°09' W 002°05'0 0.0
2017-Nov-18 19:58N 57°09' W 002°05'0 0.0
2017-Nov-18 19:28N 57°09' W 002°05'0 0.0
2017-Nov-18 18:58N 57°09' W 002°05'0 0.0
2017-Nov-18 18:28N 57°09' W 002°05'0 0.0
2017-Nov-18 17:58N 57°09' W 002°05'0 0.0
2017-Nov-18 17:28N 57°09' W 002°05'0 0.0
2017-Nov-18 16:58N 57°09' W 002°05'0 0.0
2017-Nov-18 16:28N 57°09' W 002°05'0 0.0
2017-Nov-18 15:58N 57°09' W 002°05'0 0.0
2017-Nov-18 15:28N 57°09' W 002°05'0 0.0
2017-Nov-18 14:58N 57°09' W 002°05'0 0.0
2017-Nov-18 14:28N 57°09' W 002°05'0 0.0
2017-Nov-18 13:58N 57°09' W 002°05'0 0.0
2017-Nov-18 13:28N 57°09' W 002°05'0 0.0
2017-Nov-18 12:58N 57°09' W 002°05'0 0.0
2017-Nov-18 12:28N 57°09' W 002°05'0 0.0
2017-Nov-18 11:58N 57°09' W 002°05'0 0.0
2017-Nov-18 11:22N 57°09' W 002°05'0 0.0
2017-Nov-18 10:58N 57°09' W 002°05'0 0.0
2017-Nov-18 10:28N 57°09' W 002°05'0 0.0
2017-Nov-18 09:58N 57°09' W 002°05'0 0.0
2017-Nov-18 09:25N 57°09' W 002°05'0 0.0
2017-Nov-18 08:58N 57°09' W 002°05'0 0.0
2017-Nov-18 08:28N 57°09' W 002°05'0 0.0
2017-Nov-18 07:58N 57°09' W 002°05'0 0.0
2017-Nov-18 07:28N 57°09' W 002°05'0 0.0
2017-Nov-18 06:58N 57°09' W 002°05'0 0.0
2017-Nov-18 06:28N 57°09' W 002°05'0 0.0
2017-Nov-18 05:58N 57°09' W 002°05'0 0.0
2017-Nov-18 05:28N 57°09' W 002°05'0 0.0
2017-Nov-18 04:58N 57°09' W 002°05'0 0.0
2017-Nov-18 04:28N 57°09' W 002°05'0 0.0
2017-Nov-18 03:58N 57°09' W 002°05'0 0.0
2017-Nov-18 03:28N 57°09' W 002°05'0 0.0
2017-Nov-18 02:58N 57°09' W 002°05'0 0.0
2017-Nov-18 02:28N 57°09' W 002°05'0 0.0
2017-Nov-18 01:58N 57°09' W 002°05'0 0.0
2017-Nov-18 01:28N 57°09' W 002°05'0 0.0
2017-Nov-18 00:58N 57°09' W 002°05'0 0.0
2017-Nov-18 00:28N 57°09' W 002°05'0 0.0
2017-Nov-17 23:58N 57°09' W 002°05'0 0.0
2017-Nov-17 23:28N 57°09' W 002°05'0 0.0
2017-Nov-17 22:58N 57°09' W 002°05'0 0.0
2017-Nov-17 22:28N 57°09' W 002°05'0 0.0
2017-Nov-17 21:58N 57°09' W 002°05'0 0.0
2017-Nov-17 21:28N 57°09' W 002°05'0 0.0
2017-Nov-17 20:58N 57°09' W 002°05'0 0.0
2017-Nov-17 20:28N 57°09' W 002°05'0 0.0
2017-Nov-17 19:58N 57°09' W 002°05'0 0.0
2017-Nov-17 19:28N 57°09' W 002°05'0 0.0
2017-Nov-17 18:58N 57°09' W 002°05'0 0.0
2017-Nov-17 18:28N 57°09' W 002°05'0 0.0
2017-Nov-17 17:58N 57°09' W 002°05'0 0.0
2017-Nov-17 17:28N 57°09' W 002°05'0 0.0
2017-Nov-17 16:58N 57°09' W 002°05'0 0.0
2017-Nov-17 16:28N 57°09' W 002°05'0 0.0
2017-Nov-17 15:58N 57°09' W 002°05'0 0.0
2017-Nov-17 15:28N 57°09' W 002°05'0 0.0
2017-Nov-17 14:58N 57°09' W 002°05'0 0.0
2017-Nov-17 14:28N 57°09' W 002°05'0 0.0
2017-Nov-17 13:58N 57°09' W 002°05'0 0.0
2017-Nov-17 13:28N 57°09' W 002°05'0 0.0
2017-Nov-17 12:58N 57°09' W 002°05'0 0.0
2017-Nov-17 12:28N 57°09' W 002°05'0 0.0
2017-Nov-17 11:58N 57°09' W 002°05'0 0.0
2017-Nov-17 11:28N 57°09' W 002°05'0 0.0
2017-Nov-17 10:58N 57°09' W 002°05'0 0.0
2017-Nov-17 10:28N 57°09' W 002°05'0 0.0
2017-Nov-17 09:58N 57°09' W 002°05'0 0.0
2017-Nov-17 09:28N 57°09' W 002°05'0 0.0
2017-Nov-17 08:58N 57°09' W 002°05'0 0.0
2017-Nov-17 08:28N 57°09' W 002°05'0 0.0
2017-Nov-17 07:58N 57°09' W 002°05'0 0.0
2017-Nov-17 07:28N 57°09' W 002°05'0 0.0
2017-Nov-17 06:58N 57°09' W 002°05'0 0.0
2017-Nov-17 06:25N 57°09' W 002°05'0 0.0
2017-Nov-17 05:58N 57°09' W 002°05'0 0.0
2017-Nov-17 05:28N 57°09' W 002°05'0 0.0
2017-Nov-17 04:58N 57°09' W 002°05'0 0.0
2017-Nov-17 04:28N 57°09' W 002°05'0 0.0
2017-Nov-17 03:58N 57°09' W 002°05'0 0.0
2017-Nov-17 03:28N 57°09' W 002°05'0 0.0
2017-Nov-17 02:58N 57°09' W 002°05'0 0.0
2017-Nov-17 02:28N 57°09' W 002°05'0 0.0
2017-Nov-17 01:58N 57°09' W 002°05'0 0.1
2017-Nov-17 01:30N 57°09' W 002°05'0 0.2
2017-Nov-17 00:59N 57°09' W 002°05'0 0.2
2017-Nov-17 00:29N 57°09' W 002°05'0 0.2
2017-Nov-16 23:59N 57°09' W 002°05'0 0.1
2017-Nov-16 23:29N 57°09' W 002°05'0 0.0
2017-Nov-16 22:56N 57°09' W 002°05'0 0.0
2017-Nov-16 22:29N 57°09' W 002°05'0 0.0
2017-Nov-16 21:59N 57°09' W 002°05'0 0.0
2017-Nov-16 21:29N 57°09' W 002°05'0 0.0
2017-Nov-16 20:59N 57°09' W 002°05'0 0.0
2017-Nov-16 20:29N 57°09' W 002°05'0 0.0
2017-Nov-16 19:59N 57°09' W 002°05'0 0.0
2017-Nov-16 19:29N 57°09' W 002°05'0 0.0
2017-Nov-16 18:59N 57°09' W 002°05'0 0.0
2017-Nov-16 18:29N 57°09' W 002°05'0 0.0
2017-Nov-16 17:59N 57°09' W 002°05'0 0.0
2017-Nov-16 17:29N 57°09' W 002°05'0 0.0
2017-Nov-16 16:59N 57°09' W 002°05'0 0.0
2017-Nov-16 16:29N 57°09' W 002°05'0 0.0
2017-Nov-16 15:59N 57°09' W 002°05'0 0.0
2017-Nov-16 15:29N 57°09' W 002°05'0 0.0
2017-Nov-16 14:59N 57°09' W 002°05'0 0.0
2017-Nov-16 14:29N 57°09' W 002°05'0 0.0
2017-Nov-16 13:59N 57°09' W 002°05'0 0.0
2017-Nov-16 13:29N 57°09' W 002°05'0 0.0
2017-Nov-16 12:59N 57°09' W 002°05'0 0.0
2017-Nov-16 12:29N 57°09' W 002°05'0 0.0
2017-Nov-16 11:59N 57°09' W 002°05'0 0.0
2017-Nov-16 11:29N 57°09' W 002°05'0 0.0
2017-Nov-16 10:59N 57°09' W 002°05'0 0.0
2017-Nov-16 10:29N 57°09' W 002°05'0 0.0
2017-Nov-16 09:59N 57°09' W 002°05'0 0.0
2017-Nov-16 09:29N 57°09' W 002°05'1 1.6
2017-Nov-16 09:00N 57°09' W 002°03'3 5.0
2017-Nov-16 08:30N 57°10' W 001°60'0 0.0
2017-Nov-16 08:00N 57°10' W 001°60'0 0.0
2017-Nov-16 07:30N 57°10' W 001°60'0 0.0
2017-Nov-16 07:00N 57°10' W 001°60'2 4.3
2017-Nov-16 06:30N 57°12' W 001°57'3 6.6
2017-Nov-16 06:00N 57°15' W 001°54'3 6.1
2017-Nov-16 05:30N 57°17' W 001°51'3 5.1
2017-Nov-16 04:52N 57°20' W 001°48'3 4.4
2017-Nov-16 04:12N 57°23' W 001°46'1 4.9
2017-Nov-16 03:59N 57°24' W 001°45'2 5.1
2017-Nov-16 03:30N 57°26' W 001°43'2 4.8
2017-Nov-16 03:00N 57°28' W 001°42'2 4.7
2017-Nov-16 02:30N 57°31' W 001°41'2 3.6
2017-Nov-16 02:00N 57°32' W 001°41'2 4.6
2017-Nov-16 01:30N 57°35' W 001°42'3 5.1
2017-Nov-16 01:00N 57°37' W 001°42'3 6.3
2017-Nov-16 00:30N 57°40' W 001°43'4 8.0
2017-Nov-16 00:00N 57°44' W 001°45'4 8.3
2017-Nov-15 23:30N 57°48' W 001°46'4 8.0
2017-Nov-15 23:00N 57°52' W 001°47'16 0.8
2017-Nov-15 03:59N 57°37' W 001°39'611.4
2017-Nov-15 03:30N 57°32' W 001°38'611.5
2017-Nov-15 03:00N 57°26' W 001°38'1111.2
2017-Nov-15 02:01N 57°17' W 001°50'010.4
2017-Nov-15 01:59N 57°17' W 001°50'510.7
2017-Nov-15 01:31N 57°12' W 001°55'510.1
2017-Nov-15 01:00N 57°09' W 002°03'1 2.5
2017-Nov-15 00:29N 57°09' W 002°05'0 0.0
2017-Nov-14 23:59N 57°09' W 002°05'0 0.0
2017-Nov-14 23:29N 57°09' W 002°05'0 0.0
2017-Nov-14 22:59N 57°09' W 002°05'0 0.0
2017-Nov-14 22:29N 57°09' W 002°05'0 0.0
2017-Nov-14 21:59N 57°09' W 002°05'0 0.0
2017-Nov-14 21:29N 57°09' W 002°05'0 0.0
2017-Nov-14 20:59N 57°09' W 002°05'0 0.0
2017-Nov-14 20:29N 57°09' W 002°05'0 0.0
2017-Nov-14 19:56N 57°09' W 002°05'0 0.0
2017-Nov-14 19:29N 57°09' W 002°05'0 0.0
2017-Nov-14 18:59N 57°09' W 002°05'0 0.0
2017-Nov-14 18:29N 57°09' W 002°05'0 0.0
2017-Nov-14 17:59N 57°09' W 002°05'0 0.0
2017-Nov-14 17:29N 57°09' W 002°05'0 0.0
2017-Nov-14 16:59N 57°09' W 002°05'0 0.0
2017-Nov-14 16:29N 57°09' W 002°05'0 0.0
2017-Nov-14 15:59N 57°09' W 002°05'0 0.0
2017-Nov-14 15:29N 57°09' W 002°05'0 0.0
2017-Nov-14 14:59N 57°09' W 002°05'0 0.0
2017-Nov-14 14:29N 57°09' W 002°05'0 0.0
2017-Nov-14 13:59N 57°09' W 002°05'0 0.0
2017-Nov-14 13:29N 57°09' W 002°05'0 0.0
2017-Nov-14 12:59N 57°09' W 002°05'0 0.0
2017-Nov-14 12:29N 57°09' W 002°05'0 0.0
2017-Nov-14 11:59N 57°09' W 002°05'0 0.0
2017-Nov-14 11:29N 57°09' W 002°05'0 0.0
2017-Nov-14 10:59N 57°09' W 002°05'0 0.0
2017-Nov-14 10:29N 57°09' W 002°05'0 0.0
2017-Nov-14 09:59N 57°09' W 002°05'0 0.0
2017-Nov-14 09:29N 57°09' W 002°05'0 0.0
2017-Nov-14 08:59N 57°09' W 002°05'0 0.0
2017-Nov-14 08:29N 57°09' W 002°05'0 0.0
2017-Nov-14 07:59N 57°09' W 002°05'0 0.0
2017-Nov-14 07:29N 57°09' W 002°05'0 0.0
2017-Nov-14 06:59N 57°09' W 002°05'0 0.0
2017-Nov-14 06:29N 57°09' W 002°05'0 0.0
2017-Nov-14 05:59N 57°09' W 002°05'0 0.0
2017-Nov-14 05:29N 57°09' W 002°05'0 0.0
2017-Nov-14 04:59N 57°09' W 002°05'0 0.0
2017-Nov-14 04:29N 57°09' W 002°05'0 0.0
2017-Nov-14 03:59N 57°09' W 002°05'0 0.0
2017-Nov-14 03:29N 57°09' W 002°05'0 0.0
2017-Nov-14 02:59N 57°09' W 002°05'0 0.0
2017-Nov-14 02:29N 57°09' W 002°05'0 0.0
2017-Nov-14 01:59N 57°09' W 002°05'  
Track history (hours):
 
Tides and Currents Weather Stations Pressure Air Temp Water Temp Dewpoint Dewpoint Depression Visibility Wind Speed Wind Dir Waves Ship Positions

Riverdance

Operator: Crescent Marine Services Ltd

Last reported at 2017-Nov-24 01:30 UTC. Time now 2017-Nov-24 01:46 UTC.
Position N 57°09' W 002°05'.

Length 72 m; draft 5.7 m.

Type: Other ship. MMSI: 311000463.

Date/timePositionNaut miles runAvg speedWind from/ knotsBaromVisibWave heightAir tempDewpointWater temp
2017-Nov-24 01:30N 57°09' W 002°05'0 0.0
2017-Nov-24 01:00N 57°09' W 002°05'0 0.0
2017-Nov-24 00:30N 57°09' W 002°05'0 0.0
2017-Nov-24 00:00N 57°09' W 002°05'0 0.0
2017-Nov-23 23:30N 57°09' W 002°05'0 0.0
2017-Nov-23 23:00N 57°09' W 002°05'0 0.0
2017-Nov-23 22:30N 57°09' W 002°05'0 0.0
2017-Nov-23 22:00N 57°09' W 002°05'0 0.0
2017-Nov-23 21:30N 57°09' W 002°05'0 0.0
2017-Nov-23 21:00N 57°09' W 002°05'0 0.0
2017-Nov-23 20:30N 57°09' W 002°05'0 0.0
2017-Nov-23 20:00N 57°09' W 002°05'0 0.0
2017-Nov-23 19:30N 57°09' W 002°05'0 0.0
2017-Nov-23 19:00N 57°09' W 002°05'0 0.0
2017-Nov-23 18:30N 57°09' W 002°05'0 0.0
2017-Nov-23 18:00N 57°09' W 002°05'0 0.0
2017-Nov-23 17:30N 57°09' W 002°05'0 0.0
2017-Nov-23 17:00N 57°09' W 002°05'0 0.0
2017-Nov-23 16:30N 57°09' W 002°05'0 0.0
2017-Nov-23 16:00N 57°09' W 002°05'0 0.0
2017-Nov-23 15:30N 57°09' W 002°05'0 0.0
2017-Nov-23 15:00N 57°09' W 002°05'0 0.0
2017-Nov-23 14:30N 57°09' W 002°05'0 0.0
2017-Nov-23 14:00N 57°09' W 002°05'0 0.0
2017-Nov-23 13:30N 57°09' W 002°05'0 0.0
2017-Nov-23 13:00N 57°09' W 002°05'0 0.0
2017-Nov-23 12:30N 57°09' W 002°05'0 0.0
2017-Nov-23 12:00N 57°09' W 002°05'0 0.0
2017-Nov-23 11:30N 57°09' W 002°05'0 0.0
2017-Nov-23 11:00N 57°09' W 002°05'0 0.0
2017-Nov-23 10:30N 57°09' W 002°05'0 0.0
2017-Nov-23 10:00N 57°09' W 002°05'0 0.0
2017-Nov-23 09:30N 57°09' W 002°05'0 0.0
2017-Nov-23 09:00N 57°09' W 002°05'0 0.0
2017-Nov-23 08:30N 57°09' W 002°05'0 0.0
2017-Nov-23 08:00N 57°09' W 002°05'0 0.0
2017-Nov-23 07:30N 57°09' W 002°05'0 0.0
2017-Nov-23 07:00N 57°09' W 002°05'0 0.0
2017-Nov-23 06:30N 57°09' W 002°05'0 0.0
2017-Nov-23 06:00N 57°09' W 002°05'0 0.0
2017-Nov-23 05:30N 57°09' W 002°05'0 0.0
2017-Nov-23 05:00N 57°09' W 002°05'0 0.0
2017-Nov-23 04:30N 57°09' W 002°05'0 0.0
2017-Nov-23 04:00N 57°09' W 002°05'0 0.0
2017-Nov-23 03:30N 57°09' W 002°05'0 0.0
2017-Nov-23 03:00N 57°09' W 002°05'0 0.0
2017-Nov-23 02:30N 57°09' W 002°05'0 0.0
2017-Nov-23 02:00N 57°09' W 002°05'0 0.0
2017-Nov-23 01:30N 57°09' W 002°05'0 0.0
2017-Nov-23 01:00N 57°09' W 002°05'0 0.0
2017-Nov-23 00:30N 57°09' W 002°05'0 0.0
2017-Nov-23 00:00N 57°09' W 002°05'0 0.0
2017-Nov-22 23:30N 57°09' W 002°05'0 0.0
2017-Nov-22 23:00N 57°09' W 002°05'0 0.0
2017-Nov-22 22:30N 57°09' W 002°05'0 0.0
2017-Nov-22 22:00N 57°09' W 002°05'0 0.0
2017-Nov-22 21:30N 57°09' W 002°05'0 0.0
2017-Nov-22 21:00N 57°09' W 002°05'0 0.0
2017-Nov-22 20:30N 57°09' W 002°05'0 0.0
2017-Nov-22 20:00N 57°09' W 002°05'0 0.0
2017-Nov-22 19:30N 57°09' W 002°05'  
2017-Nov-19 07:01N 57°53' W 001°40'0 4.3
2017-Nov-19 07:00N 57°52' W 001°40'2 5.0
2017-Nov-19 06:30N 57°50' W 001°40'3 5.5
2017-Nov-19 06:00N 57°47' W 001°40'3 5.5
2017-Nov-19 05:30N 57°44' W 001°40'3 5.6
2017-Nov-19 05:00N 57°42' W 001°40'3 5.2
2017-Nov-19 04:30N 57°39' W 001°39'3 5.6
2017-Nov-19 04:00N 57°36' W 001°39'3 5.6
2017-Nov-19 03:30N 57°34' W 001°38'3 5.2
2017-Nov-19 03:00N 57°31' W 001°38'3 5.2
2017-Nov-19 02:31N 57°28' W 001°38'3 5.5
2017-Nov-19 02:00N 57°26' W 001°38'3 6.7
2017-Nov-19 01:31N 57°23' W 001°41'6 7.1
2017-Nov-19 00:42N 57°18' W 001°48'2 7.6
2017-Nov-19 00:29N 57°17' W 001°49'4 7.9
2017-Nov-19 00:00N 57°14' W 001°53'4 8.2
2017-Nov-18 23:31N 57°10' W 001°58'4 7.4
2017-Nov-18 22:58N 57°09' W 002°05'0 0.0
2017-Nov-18 22:28N 57°09' W 002°05'0 0.0
2017-Nov-18 21:58N 57°09' W 002°05'0 0.0
2017-Nov-18 21:28N 57°09' W 002°05'0 0.0
2017-Nov-18 20:58N 57°09' W 002°05'0 0.0
2017-Nov-18 20:28N 57°09' W 002°05'0 0.0
2017-Nov-18 19:58N 57°09' W 002°05'0 0.0
2017-Nov-18 19:28N 57°09' W 002°05'0 0.0
2017-Nov-18 18:58N 57°09' W 002°05'0 0.0
2017-Nov-18 18:28N 57°09' W 002°05'0 0.0
2017-Nov-18 17:58N 57°09' W 002°05'0 0.0
2017-Nov-18 17:28N 57°09' W 002°05'0 0.0
2017-Nov-18 16:58N 57°09' W 002°05'0 0.0
2017-Nov-18 16:28N 57°09' W 002°05'0 0.0
2017-Nov-18 15:58N 57°09' W 002°05'0 0.0
2017-Nov-18 15:28N 57°09' W 002°05'0 0.0
2017-Nov-18 14:58N 57°09' W 002°05'0 0.0
2017-Nov-18 14:28N 57°09' W 002°05'0 0.0
2017-Nov-18 13:58N 57°09' W 002°05'0 0.0
2017-Nov-18 13:28N 57°09' W 002°05'0 0.0
2017-Nov-18 12:58N 57°09' W 002°05'0 0.0
2017-Nov-18 12:28N 57°09' W 002°05'0 0.0
2017-Nov-18 11:58N 57°09' W 002°05'0 0.0
2017-Nov-18 11:22N 57°09' W 002°05'0 0.0
2017-Nov-18 10:58N 57°09' W 002°05'0 0.0
2017-Nov-18 10:28N 57°09' W 002°05'0 0.0
2017-Nov-18 09:58N 57°09' W 002°05'0 0.0
2017-Nov-18 09:25N 57°09' W 002°05'0 0.0
2017-Nov-18 08:58N 57°09' W 002°05'0 0.0
2017-Nov-18 08:28N 57°09' W 002°05'0 0.0
2017-Nov-18 07:58N 57°09' W 002°05'0 0.0
2017-Nov-18 07:28N 57°09' W 002°05'0 0.0
2017-Nov-18 06:58N 57°09' W 002°05'0 0.0
2017-Nov-18 06:28N 57°09' W 002°05'0 0.0
2017-Nov-18 05:58N 57°09' W 002°05'0 0.0
2017-Nov-18 05:28N 57°09' W 002°05'0 0.0
2017-Nov-18 04:58N 57°09' W 002°05'0 0.0
2017-Nov-18 04:28N 57°09' W 002°05'0 0.0
2017-Nov-18 03:58N 57°09' W 002°05'0 0.0
2017-Nov-18 03:28N 57°09' W 002°05'0 0.0
2017-Nov-18 02:58N 57°09' W 002°05'0 0.0
2017-Nov-18 02:28N 57°09' W 002°05'0 0.0
2017-Nov-18 01:58N 57°09' W 002°05'0 0.0
2017-Nov-18 01:28N 57°09' W 002°05'0 0.0
2017-Nov-18 00:58N 57°09' W 002°05'0 0.0
2017-Nov-18 00:28N 57°09' W 002°05'0 0.0
2017-Nov-17 23:58N 57°09' W 002°05'0 0.0
2017-Nov-17 23:28N 57°09' W 002°05'0 0.0
2017-Nov-17 22:58N 57°09' W 002°05'0 0.0
2017-Nov-17 22:28N 57°09' W 002°05'0 0.0
2017-Nov-17 21:58N 57°09' W 002°05'0 0.0
2017-Nov-17 21:28N 57°09' W 002°05'0 0.0
2017-Nov-17 20:58N 57°09' W 002°05'0 0.0
2017-Nov-17 20:28N 57°09' W 002°05'0 0.0
2017-Nov-17 19:58N 57°09' W 002°05'0 0.0
2017-Nov-17 19:28N 57°09' W 002°05'0 0.0
2017-Nov-17 18:58N 57°09' W 002°05'0 0.0
2017-Nov-17 18:28N 57°09' W 002°05'0 0.0
2017-Nov-17 17:58N 57°09' W 002°05'0 0.0
2017-Nov-17 17:28N 57°09' W 002°05'0 0.0
2017-Nov-17 16:58N 57°09' W 002°05'0 0.0
2017-Nov-17 16:28N 57°09' W 002°05'0 0.0
2017-Nov-17 15:58N 57°09' W 002°05'0 0.0
2017-Nov-17 15:28N 57°09' W 002°05'0 0.0
2017-Nov-17 14:58N 57°09' W 002°05'0 0.0
2017-Nov-17 14:28N 57°09' W 002°05'0 0.0
2017-Nov-17 13:58N 57°09' W 002°05'0 0.0
2017-Nov-17 13:28N 57°09' W 002°05'0 0.0
2017-Nov-17 12:58N 57°09' W 002°05'0 0.0
2017-Nov-17 12:28N 57°09' W 002°05'0 0.0
2017-Nov-17 11:58N 57°09' W 002°05'0 0.0
2017-Nov-17 11:28N 57°09' W 002°05'0 0.0
2017-Nov-17 10:58N 57°09' W 002°05'0 0.0
2017-Nov-17 10:28N 57°09' W 002°05'0 0.0
2017-Nov-17 09:58N 57°09' W 002°05'0 0.0
2017-Nov-17 09:28N 57°09' W 002°05'0 0.0
2017-Nov-17 08:58N 57°09' W 002°05'0 0.0
2017-Nov-17 08:28N 57°09' W 002°05'0 0.0
2017-Nov-17 07:58N 57°09' W 002°05'0 0.0
2017-Nov-17 07:28N 57°09' W 002°05'0 0.0
2017-Nov-17 06:58N 57°09' W 002°05'0 0.0
2017-Nov-17 06:25N 57°09' W 002°05'0 0.0
2017-Nov-17 05:58N 57°09' W 002°05'0 0.0
2017-Nov-17 05:28N 57°09' W 002°05'0 0.0
2017-Nov-17 04:58N 57°09' W 002°05'0 0.0
2017-Nov-17 04:28N 57°09' W 002°05'0 0.0
2017-Nov-17 03:58N 57°09' W 002°05'0 0.0
2017-Nov-17 03:28N 57°09' W 002°05'0 0.0
2017-Nov-17 02:58N 57°09' W 002°05'0 0.0
2017-Nov-17 02:28N 57°09' W 002°05'0 0.0
2017-Nov-17 01:58N 57°09' W 002°05'0 0.1
2017-Nov-17 01:30N 57°09' W 002°05'0 0.2
2017-Nov-17 00:59N 57°09' W 002°05'0 0.2
2017-Nov-17 00:29N 57°09' W 002°05'0 0.2
2017-Nov-16 23:59N 57°09' W 002°05'0 0.1
2017-Nov-16 23:29N 57°09' W 002°05'0 0.0
2017-Nov-16 22:56N 57°09' W 002°05'0 0.0
2017-Nov-16 22:29N 57°09' W 002°05'0 0.0
2017-Nov-16 21:59N 57°09' W 002°05'0 0.0
2017-Nov-16 21:29N 57°09' W 002°05'0 0.0
2017-Nov-16 20:59N 57°09' W 002°05'0 0.0
2017-Nov-16 20:29N 57°09' W 002°05'0 0.0
2017-Nov-16 19:59N 57°09' W 002°05'0 0.0
2017-Nov-16 19:29N 57°09' W 002°05'0 0.0
2017-Nov-16 18:59N 57°09' W 002°05'0 0.0
2017-Nov-16 18:29N 57°09' W 002°05'0 0.0
2017-Nov-16 17:59N 57°09' W 002°05'0 0.0
2017-Nov-16 17:29N 57°09' W 002°05'0 0.0
2017-Nov-16 16:59N 57°09' W 002°05'0 0.0
2017-Nov-16 16:29N 57°09' W 002°05'0 0.0
2017-Nov-16 15:59N 57°09' W 002°05'0 0.0
2017-Nov-16 15:29N 57°09' W 002°05'0 0.0
2017-Nov-16 14:59N 57°09' W 002°05'0 0.0
2017-Nov-16 14:29N 57°09' W 002°05'0 0.0
2017-Nov-16 13:59N 57°09' W 002°05'0 0.0
2017-Nov-16 13:29N 57°09' W 002°05'0 0.0
2017-Nov-16 12:59N 57°09' W 002°05'0 0.0
2017-Nov-16 12:29N 57°09' W 002°05'0 0.0
2017-Nov-16 11:59N 57°09' W 002°05'0 0.0
2017-Nov-16 11:29N 57°09' W 002°05'0 0.0
2017-Nov-16 10:59N 57°09' W 002°05'0 0.0
2017-Nov-16 10:29N 57°09' W 002°05'0 0.0
2017-Nov-16 09:59N 57°09' W 002°05'0 0.0
2017-Nov-16 09:29N 57°09' W 002°05'1 1.6
2017-Nov-16 09:00N 57°09' W 002°03'3 5.0
2017-Nov-16 08:30N 57°10' W 001°60'0 0.0
2017-Nov-16 08:00N 57°10' W 001°60'0 0.0
2017-Nov-16 07:30N 57°10' W 001°60'0 0.0
2017-Nov-16 07:00N 57°10' W 001°60'2 4.3
2017-Nov-16 06:30N 57°12' W 001°57'3 6.6
2017-Nov-16 06:00N 57°15' W 001°54'3 6.1
2017-Nov-16 05:30N 57°17' W 001°51'3 5.1
2017-Nov-16 04:52N 57°20' W 001°48'3 4.4
2017-Nov-16 04:12N 57°23' W 001°46'1 4.9
2017-Nov-16 03:59N 57°24' W 001°45'2 5.1
2017-Nov-16 03:30N 57°26' W 001°43'2 4.8
2017-Nov-16 03:00N 57°28' W 001°42'2 4.7
2017-Nov-16 02:30N 57°31' W 001°41'2 3.6
2017-Nov-16 02:00N 57°32' W 001°41'2 4.6
2017-Nov-16 01:30N 57°35' W 001°42'3 5.1
2017-Nov-16 01:00N 57°37' W 001°42'3 6.3
2017-Nov-16 00:30N 57°40' W 001°43'4 8.0
2017-Nov-16 00:00N 57°44' W 001°45'4 8.3
2017-Nov-15 23:30N 57°48' W 001°46'4 8.0
2017-Nov-15 23:00N 57°52' W 001°47'16 0.8
2017-Nov-15 03:59N 57°37' W 001°39'611.4
2017-Nov-15 03:30N 57°32' W 001°38'611.5
2017-Nov-15 03:00N 57°26' W 001°38'1111.2
2017-Nov-15 02:01N 57°17' W 001°50'010.4
2017-Nov-15 01:59N 57°17' W 001°50'510.7
2017-Nov-15 01:31N 57°12' W 001°55'510.1
2017-Nov-15 01:00N 57°09' W 002°03'1 2.5
2017-Nov-15 00:29N 57°09' W 002°05'0 0.0
2017-Nov-14 23:59N 57°09' W 002°05'0 0.0
2017-Nov-14 23:29N 57°09' W 002°05'0 0.0
2017-Nov-14 22:59N 57°09' W 002°05'0 0.0
2017-Nov-14 22:29N 57°09' W 002°05'0 0.0
2017-Nov-14 21:59N 57°09' W 002°05'0 0.0
2017-Nov-14 21:29N 57°09' W 002°05'0 0.0
2017-Nov-14 20:59N 57°09' W 002°05'0 0.0
2017-Nov-14 20:29N 57°09' W 002°05'0 0.0
2017-Nov-14 19:56N 57°09' W 002°05'0 0.0
2017-Nov-14 19:29N 57°09' W 002°05'0 0.0
2017-Nov-14 18:59N 57°09' W 002°05'0 0.0
2017-Nov-14 18:29N 57°09' W 002°05'0 0.0
2017-Nov-14 17:59N 57°09' W 002°05'0 0.0
2017-Nov-14 17:29N 57°09' W 002°05'0 0.0
2017-Nov-14 16:59N 57°09' W 002°05'0 0.0
2017-Nov-14 16:29N 57°09' W 002°05'0 0.0
2017-Nov-14 15:59N 57°09' W 002°05'0 0.0
2017-Nov-14 15:29N 57°09' W 002°05'0 0.0
2017-Nov-14 14:59N 57°09' W 002°05'0 0.0
2017-Nov-14 14:29N 57°09' W 002°05'0 0.0
2017-Nov-14 13:59N 57°09' W 002°05'0 0.0
2017-Nov-14 13:29N 57°09' W 002°05'0 0.0
2017-Nov-14 12:59N 57°09' W 002°05'0 0.0
2017-Nov-14 12:29N 57°09' W 002°05'0 0.0
2017-Nov-14 11:59N 57°09' W 002°05'0 0.0
2017-Nov-14 11:29N 57°09' W 002°05'0 0.0
2017-Nov-14 10:59N 57°09' W 002°05'0 0.0
2017-Nov-14 10:29N 57°09' W 002°05'0 0.0
2017-Nov-14 09:59N 57°09' W 002°05'0 0.0
2017-Nov-14 09:29N 57°09' W 002°05'0 0.0
2017-Nov-14 08:59N 57°09' W 002°05'0 0.0
2017-Nov-14 08:29N 57°09' W 002°05'0 0.0
2017-Nov-14 07:59N 57°09' W 002°05'0 0.0
2017-Nov-14 07:29N 57°09' W 002°05'0 0.0
2017-Nov-14 06:59N 57°09' W 002°05'0 0.0
2017-Nov-14 06:29N 57°09' W 002°05'0 0.0
2017-Nov-14 05:59N 57°09' W 002°05'0 0.0
2017-Nov-14 05:29N 57°09' W 002°05'0 0.0
2017-Nov-14 04:59N 57°09' W 002°05'0 0.0
2017-Nov-14 04:29N 57°09' W 002°05'0 0.0
2017-Nov-14 03:59N 57°09' W 002°05'0 0.0
2017-Nov-14 03:29N 57°09' W 002°05'0 0.0
2017-Nov-14 02:59N 57°09' W 002°05'0 0.0
2017-Nov-14 02:29N 57°09' W 002°05'0 0.0
2017-Nov-14 01:59N 57°09' W 002°05'  

Dump ship's entire track history